Time;durP1;ratioP1;P1;durP2;ratioP2;P2;SDS_P1;SDS_P2;PMS_P1;PMS_P2;Temp;Humidity;BMP_temperature;BMP_pressure;BME280_temperature;BME280_humidity;BME280_pressure;Samples;Min_cycle;Max_cycle;Signal;HPM_P1;HPM_P2
2023/12/09 00:00:46;;;;;;;1.15;0.40;;;9.00;1.00;;;;;;4959854;28;20094;-77
2023/12/09 00:03:15;;;;;;;0.77;0.45;;;9.00;1.00;;;;;;4958576;28;20054;-77
2023/12/09 00:05:42;;;;;;;0.85;0.30;;;9.00;1.00;;;;;;4963810;28;20058;-77
2023/12/09 00:08:09;;;;;;;2.15;0.95;;;9.00;1.00;;;;;;4936255;28;20145;-77
2023/12/09 00:10:36;;;;;;;1.38;0.43;;;9.00;1.00;;;;;;4922358;29;20535;-77
2023/12/09 00:13:05;;;;;;;1.50;0.30;;;8.90;13.10;;;;;;4977006;28;20062;-77
2023/12/09 00:15:32;;;;;;;0.80;0.40;;;8.90;91.60;;;;;;4973162;28;20488;-77
2023/12/09 00:17:59;;;;;;;0.93;0.60;;;8.90;99.90;;;;;;4961632;28;20055;-77
2023/12/09 00:20:26;;;;;;;1.02;0.43;;;8.90;99.90;;;;;;4954752;28;20058;-77
2023/12/09 00:22:54;;;;;;;1.55;0.50;;;8.90;99.90;;;;;;4976986;28;20054;-77
2023/12/09 00:25:21;;;;;;;1.33;0.60;;;8.90;99.90;;;;;;4961855;28;20046;-77
2023/12/09 00:27:48;;;;;;;1.38;0.70;;;9.00;99.90;;;;;;4926210;28;20102;-77
2023/12/09 00:30:15;;;;;;;0.73;0.20;;;9.00;99.90;;;;;;4942357;28;20045;-77
2023/12/09 00:32:44;;;;;;;0.82;0.40;;;9.00;99.90;;;;;;4981205;28;20101;-77
2023/12/09 00:35:11;;;;;;;1.33;0.40;;;9.00;99.90;;;;;;4939192;28;20134;-77
2023/12/09 00:37:40;;;;;;;2.58;0.70;;;9.00;99.90;;;;;;4925808;28;20054;-77
2023/12/09 00:40:08;;;;;;;0.73;0.57;;;9.00;99.90;;;;;;4982961;28;20086;-77
2023/12/09 00:42:35;;;;;;;1.15;0.47;;;9.00;1.00;;;;;;4973004;28;20041;-77
2023/12/09 00:45:02;;;;;;;0.90;0.38;;;8.90;20.10;;;;;;4986080;28;20079;-77
2023/12/09 00:47:29;;;;;;;0.90;0.32;;;8.90;99.90;;;;;;4967134;28;20050;-77
2023/12/09 00:49:56;;;;;;;1.33;0.50;;;8.90;99.90;;;;;;5005252;28;20057;-77
2023/12/09 00:52:23;;;;;;;0.95;0.50;;;8.90;99.90;;;;;;4952143;28;20149;-77
2023/12/09 00:54:50;;;;;;;0.50;0.50;;;8.80;99.90;;;;;;4960245;28;20056;-77
2023/12/09 00:57:17;;;;;;;1.02;0.40;;;8.80;99.90;;;;;;4967643;28;20100;-77
2023/12/09 00:59:44;;;;;;;2.13;0.47;;;8.70;1.00;;;;;;4947718;28;20149;-76
2023/12/09 01:02:11;;;;;;;0.88;0.40;;;8.70;1.00;;;;;;4979763;28;20053;-77
2023/12/09 01:04:38;;;;;;;0.70;0.30;;;8.60;99.80;;;;;;5001656;28;20042;-76
2023/12/09 01:07:05;;;;;;;1.13;0.40;;;8.50;99.90;;;;;;4988521;28;20711;-76
2023/12/09 01:09:32;;;;;;;0.40;0.30;;;8.50;99.90;;;;;;5016751;28;20077;-76
2023/12/09 01:11:59;;;;;;;0.70;0.40;;;8.50;99.90;;;;;;4999508;28;20053;-76
2023/12/09 01:14:26;;;;;;;1.08;0.30;;;8.40;99.90;;;;;;4983342;28;20479;-77
2023/12/09 01:16:52;;;;;;;0.90;0.40;;;8.40;1.00;;;;;;4999144;28;20127;-76
2023/12/09 01:19:19;;;;;;;0.35;0.30;;;8.30;99.90;;;;;;4985128;28;20100;-76
2023/12/09 01:21:47;;;;;;;0.52;0.30;;;8.30;99.90;;;;;;5015094;28;20518;-76
2023/12/09 01:24:15;;;;;;;1.77;0.30;;;8.20;99.90;;;;;;4987131;28;20057;-76
2023/12/09 01:26:43;;;;;;;0.43;0.30;;;8.20;61.40;;;;;;5008524;28;20108;-76
2023/12/09 01:29:09;;;;;;;0.60;0.32;;;8.20;99.90;;;;;;4999711;28;20069;-76
2023/12/09 01:31:37;;;;;;;1.23;0.50;;;8.20;99.90;;;;;;4998972;28;20050;-77
2023/12/09 01:34:04;;;;;;;0.65;0.20;;;8.20;99.90;;;;;;4987719;28;20653;-75
2023/12/09 01:36:31;;;;;;;0.95;0.40;;;8.10;1.00;;;;;;4969727;28;20096;-76
2023/12/09 01:38:58;;;;;;;0.35;0.28;;;8.10;99.90;;;;;;4946674;28;20054;-76
2023/12/09 01:41:27;;;;;;;1.25;0.47;;;8.10;99.90;;;;;;4963421;28;20046;-76
2023/12/09 01:43:53;;;;;;;0.75;0.40;;;8.10;1.00;;;;;;4947428;28;20124;-76
2023/12/09 01:46:20;;;;;;;0.22;0.20;;;8.10;7.20;;;;;;4962793;28;20351;-77
2023/12/09 01:48:47;;;;;;;0.32;0.30;;;8.00;36.50;;;;;;4965520;28;20057;-76
2023/12/09 01:51:15;;;;;;;0.82;0.40;;;8.10;99.90;;;;;;4980378;28;20237;-75
2023/12/09 01:53:42;;;;;;;0.70;0.30;;;8.10;99.90;;;;;;4963570;28;20145;-76
2023/12/09 01:56:11;;;;;;;0.30;0.30;;;8.10;99.90;;;;;;4978777;28;20054;-76
2023/12/09 01:58:38;;;;;;;0.50;0.30;;;8.10;99.90;;;;;;4967132;28;20054;-76
2023/12/09 02:01:05;;;;;;;1.58;0.40;;;8.10;1.00;;;;;;4961986;28;20095;-76
2023/12/09 02:03:32;;;;;;;0.40;0.30;;;8.10;1.00;;;;;;4963056;28;20345;-76
2023/12/09 02:06:00;;;;;;;1.27;0.30;;;8.10;99.90;;;;;;4963153;28;20054;-76
2023/12/09 02:08:27;;;;;;;0.30;0.22;;;8.10;99.90;;;;;;4980411;28;20050;-76
2023/12/09 02:11:06;;;;;;;0.85;0.30;;;8.10;99.90;;;;;;4949411;28;20054;-76
2023/12/09 02:13:40;;;;;;;0.57;0.30;;;8.10;99.90;;;;;;4989093;28;20054;-75
2023/12/09 02:16:10;;;;;;;1.08;0.40;;;8.10;99.90;;;;;;5008609;28;20062;-76
2023/12/09 02:18:37;;;;;;;1.02;0.30;;;8.20;99.90;;;;;;4965264;28;20050;-76
2023/12/09 02:21:05;;;;;;;1.48;0.47;;;8.20;99.90;;;;;;4943421;28;20062;-78
2023/12/09 02:23:32;;;;;;;2.72;0.35;;;8.20;1.00;;;;;;4977237;28;20622;-78
2023/12/09 02:26:02;;;;;;;1.10;0.25;;;8.20;1.00;;;;;;4975549;28;20411;-78
2023/12/09 02:28:29;;;;;;;1.35;0.30;;;8.20;1.00;;;;;;4946454;28;20402;-76
2023/12/09 02:31:03;;;;;;;1.55;0.50;;;8.20;1.00;;;;;;4942318;28;20228;-78
2023/12/09 02:33:30;;;;;;;0.82;0.30;;;8.30;63.50;;;;;;4964004;28;20049;-78
2023/12/09 02:35:57;;;;;;;0.85;0.50;;;8.30;3.50;;;;;;4972421;28;20050;-76
2023/12/09 02:38:24;;;;;;;0.55;0.30;;;8.30;67.90;;;;;;4958824;28;20051;-79
2023/12/09 02:40:52;;;;;;;0.88;0.50;;;8.40;94.60;;;;;;4954784;28;20381;-78
2023/12/09 02:43:19;;;;;;;1.63;0.60;;;8.40;30.00;;;;;;4966991;28;20042;-76
2023/12/09 02:45:46;;;;;;;0.73;0.32;;;8.40;63.50;;;;;;4970248;28;20081;-78
2023/12/09 02:48:13;;;;;;;0.82;0.30;;;8.40;27.20;;;;;;4949914;28;20223;-77
2023/12/09 02:50:40;;;;;;;0.90;0.40;;;8.40;95.50;;;;;;4972385;28;20300;-78
2023/12/09 02:53:07;;;;;;;0.45;0.20;;;8.50;90.70;;;;;;4967627;28;20059;-78
2023/12/09 02:55:35;;;;;;;1.13;0.68;;;8.50;99.90;;;;;;4971964;28;20053;-76
2023/12/09 02:58:02;;;;;;;1.70;0.52;;;8.60;99.90;;;;;;4967287;28;20069;-76
2023/12/09 03:00:28;;;;;;;1.55;0.50;;;8.60;99.90;;;;;;4965393;28;20051;-76
2023/12/09 03:02:56;;;;;;;1.63;0.40;;;8.60;99.90;;;;;;4956862;28;20104;-77
2023/12/09 03:05:24;;;;;;;1.27;0.43;;;8.70;99.90;;;;;;4967137;28;20154;-77
2023/12/09 03:07:51;;;;;;;1.20;0.50;;;8.70;99.90;;;;;;4958771;28;20042;-77
2023/12/09 03:10:18;;;;;;;1.90;0.40;;;8.80;99.90;;;;;;4936866;28;20386;-76
2023/12/09 03:12:46;;;;;;;1.90;0.60;;;8.80;99.90;;;;;;4966662;28;20157;-76
2023/12/09 03:15:13;;;;;;;1.45;0.50;;;8.90;99.90;;;;;;4966712;28;20516;-76
2023/12/09 03:17:41;;;;;;;0.52;0.30;;;8.90;99.90;;;;;;4974884;28;20058;-76
2023/12/09 03:20:09;;;;;;;1.30;0.80;;;8.90;99.90;;;;;;4970080;28;20050;-77
2023/12/09 03:22:36;;;;;;;1.98;0.75;;;8.90;99.90;;;;;;4970564;28;20042;-76
2023/12/09 03:25:03;;;;;;;2.88;0.52;;;9.00;99.90;;;;;;4967591;28;20055;-77
2023/12/09 03:27:30;;;;;;;1.40;0.50;;;9.10;99.90;;;;;;4950804;28;20042;-76
2023/12/09 03:29:57;;;;;;;2.67;0.90;;;9.10;99.90;;;;;;4962630;28;20181;-76
2023/12/09 03:32:23;;;;;;;1.83;0.60;;;9.10;1.00;;;;;;4967228;28;20142;-76
2023/12/09 03:34:51;;;;;;;1.05;0.60;;;9.20;1.00;;;;;;4967901;28;20370;-77
2023/12/09 03:37:19;;;;;;;2.33;0.77;;;9.20;99.90;;;;;;4966498;28;20057;-77
2023/12/09 03:39:46;;;;;;;1.85;0.50;;;9.30;99.90;;;;;;4967101;28;20077;-76
2023/12/09 03:42:13;;;;;;;1.42;0.52;;;9.30;99.90;;;;;;4966547;28;20408;-76
2023/12/09 03:44:39;;;;;;;0.88;0.30;;;9.30;1.00;;;;;;4953706;28;20053;-76
2023/12/09 03:47:07;;;;;;;1.10;0.55;;;9.30;99.90;;;;;;4978536;28;20038;-80
2023/12/09 03:49:48;;;;;;;1.80;0.68;;;9.40;1.00;;;;;;4967089;28;20069;-77
2023/12/09 03:52:15;;;;;;;2.35;0.70;;;9.40;55.80;;;;;;4984001;28;20050;-76
2023/12/09 03:54:45;;;;;;;3.00;0.70;;;9.50;99.90;;;;;;4964927;28;20153;-76
2023/12/09 03:57:13;;;;;;;1.48;0.50;;;9.50;99.90;;;;;;4961618;28;20046;-76
2023/12/09 03:59:40;;;;;;;1.55;0.60;;;9.50;1.00;;;;;;4960466;28;20638;-76
2023/12/09 04:02:07;;;;;;;1.55;0.57;;;9.50;1.00;;;;;;4982300;28;20047;-76
2023/12/09 04:04:39;;;;;;;1.02;0.50;;;9.60;1.00;;;;;;4955607;28;20047;-76
2023/12/09 04:07:06;;;;;;;1.40;0.60;;;9.60;99.90;;;;;;4952119;28;20122;-76
2023/12/09 04:09:32;;;;;;;0.63;0.35;;;9.50;1.00;;;;;;4946803;28;20222;-76
2023/12/09 04:12:01;;;;;;;1.50;0.57;;;9.50;1.00;;;;;;4937284;28;20047;-76
2023/12/09 04:14:28;;;;;;;0.88;0.40;;;9.50;1.00;;;;;;4940686;28;20141;-76
2023/12/09 04:16:55;;;;;;;0.73;0.50;;;9.50;24.20;;;;;;4966545;28;20054;-76
2023/12/09 04:19:22;;;;;;;1.17;0.40;;;9.50;1.00;;;;;;4965502;28;20476;-76
2023/12/09 04:21:51;;;;;;;2.40;0.60;;;9.50;1.00;;;;;;4981330;28;20085;-76
2023/12/09 04:24:19;;;;;;;0.90;0.50;;;9.50;1.00;;;;;;4975211;28;20054;-76
2023/12/09 04:26:46;;;;;;;0.75;0.40;;;9.50;57.60;;;;;;4965638;28;20086;-76
2023/12/09 04:29:13;;;;;;;1.88;0.43;;;9.50;43.70;;;;;;4951530;28;20043;-76
2023/12/09 04:31:42;;;;;;;1.85;0.77;;;9.50;69.70;;;;;;4957969;28;20109;-76
2023/12/09 04:34:10;;;;;;;0.60;0.30;;;9.50;99.90;;;;;;4955188;28;20050;-76
2023/12/09 04:36:37;;;;;;;1.23;0.43;;;9.40;99.90;;;;;;4958275;28;20133;-76
2023/12/09 04:39:05;;;;;;;0.57;0.40;;;9.50;99.90;;;;;;4976654;28;20635;-76
2023/12/09 04:41:32;;;;;;;1.27;0.40;;;9.40;70.30;;;;;;4983935;28;20096;-75
2023/12/09 04:43:59;;;;;;;0.60;0.35;;;9.40;99.90;;;;;;4981701;28;20460;-76
2023/12/09 04:46:27;;;;;;;0.65;0.30;;;9.40;1.00;;;;;;4986364;28;20049;-76
2023/12/09 04:48:54;;;;;;;1.38;0.50;;;9.40;99.90;;;;;;4969795;28;20052;-76
2023/12/09 04:51:21;;;;;;;2.03;0.50;;;9.40;1.00;;;;;;4974954;28;20050;-76
2023/12/09 04:53:48;;;;;;;0.88;0.30;;;9.40;99.90;;;;;;4984097;28;20043;-76
2023/12/09 04:56:15;;;;;;;1.00;0.32;;;9.40;99.90;;;;;;4982641;28;20050;-76
2023/12/09 04:58:42;;;;;;;0.85;0.47;;;9.40;99.90;;;;;;4998091;28;20057;-76
2023/12/09 05:01:09;;;;;;;1.75;0.50;;;9.40;1.00;;;;;;4985497;28;20113;-76
2023/12/09 05:03:36;;;;;;;1.98;0.60;;;9.40;1.00;;;;;;4966136;28;20042;-76
2023/12/09 05:06:04;;;;;;;1.92;0.60;;;9.40;1.00;;;;;;4970659;28;20062;-76
2023/12/09 05:08:31;;;;;;;1.00;0.60;;;9.40;22.90;;;;;;4983106;28;20092;-76
2023/12/09 05:10:58;;;;;;;0.70;0.45;;;9.40;60.70;;;;;;5006396;28;20053;-76
2023/12/09 05:13:25;;;;;;;2.78;0.77;;;9.40;37.70;;;;;;5002394;28;20072;-76
2023/12/09 05:15:52;;;;;;;1.40;0.70;;;9.40;21.40;;;;;;4968757;28;20519;-76
2023/12/09 05:18:20;;;;;;;1.77;0.77;;;9.40;59.40;;;;;;4969187;28;20061;-76
2023/12/09 05:20:47;;;;;;;1.85;0.68;;;9.40;90.70;;;;;;4988705;28;20058;-76
2023/12/09 05:23:14;;;;;;;4.47;1.13;;;9.40;99.90;;;;;;4996304;28;20104;-76
2023/12/09 05:25:42;;;;;;;1.63;0.65;;;9.40;90.90;;;;;;4954844;28;20047;-76
2023/12/09 05:28:09;;;;;;;2.53;0.90;;;9.40;91.80;;;;;;4996877;28;20072;-76
2023/12/09 05:30:36;;;;;;;2.75;1.00;;;9.50;98.40;;;;;;4982385;28;20096;-76
2023/12/09 05:33:03;;;;;;;2.10;0.90;;;9.50;1.00;;;;;;4996712;28;20542;-76
2023/12/09 05:35:30;;;;;;;1.88;0.60;;;9.40;1.00;;;;;;4986836;28;20061;-77
2023/12/09 05:37:57;;;;;;;2.50;0.52;;;9.50;1.00;;;;;;4971354;28;20124;-76
2023/12/09 05:40:24;;;;;;;3.97;1.20;;;9.40;1.00;;;;;;5002199;28;20099;-76
2023/12/09 05:42:51;;;;;;;1.75;0.80;;;9.40;1.00;;;;;;4956470;28;20057;-76
2023/12/09 05:45:18;;;;;;;1.88;0.60;;;9.50;34.10;;;;;;4987742;28;20161;-75
2023/12/09 05:47:45;;;;;;;2.55;0.63;;;9.40;99.90;;;;;;4970512;28;20116;-75
2023/12/09 05:50:26;;;;;;;1.23;0.57;;;9.50;99.90;;;;;;5081086;28;20805;-77
2023/12/09 05:52:53;;;;;;;3.15;0.95;;;9.40;99.90;;;;;;5073057;28;20052;-76
2023/12/09 05:55:20;;;;;;;1.58;0.70;;;9.50;99.90;;;;;;5058274;28;20068;-76
2023/12/09 05:57:46;;;;;;;1.35;0.52;;;9.50;99.90;;;;;;5058346;28;20114;-77
2023/12/09 06:00:13;;;;;;;1.00;0.40;;;9.50;99.90;;;;;;5063139;28;20047;-76
2023/12/09 06:02:43;;;;;;;2.28;0.77;;;9.50;99.90;;;;;;5066164;28;20045;-77
2023/12/09 06:05:10;;;;;;;1.83;0.85;;;9.50;99.90;;;;;;5055728;28;20125;-76
2023/12/09 06:07:37;;;;;;;1.63;0.70;;;9.50;99.90;;;;;;5054069;28;20052;-76
2023/12/09 06:10:05;;;;;;;2.13;0.82;;;9.50;99.90;;;;;;5057597;28;20041;-76
2023/12/09 06:12:32;;;;;;;2.20;1.10;;;9.50;1.00;;;;;;5061923;28;20044;-76
2023/12/09 06:14:59;;;;;;;2.08;0.65;;;9.50;1.00;;;;;;5040859;28;20570;-76
2023/12/09 06:17:26;;;;;;;2.35;0.70;;;9.40;99.90;;;;;;5047904;28;20411;-76
2023/12/09 06:19:53;;;;;;;4.50;0.95;;;9.40;99.90;;;;;;5044911;28;20048;-76
2023/12/09 06:22:20;;;;;;;3.13;0.90;;;9.40;99.90;;;;;;5059797;28;20086;-76
2023/12/09 06:24:47;;;;;;;2.30;0.80;;;9.40;1.00;;;;;;5038107;28;20049;-76
2023/12/09 06:27:14;;;;;;;2.38;0.70;;;9.40;1.00;;;;;;5039800;28;20095;-76
2023/12/09 06:29:44;;;;;;;1.65;0.80;;;9.40;1.00;;;;;;5059421;28;20048;-76
2023/12/09 06:32:11;;;;;;;1.98;0.73;;;9.40;1.00;;;;;;5039448;28;20098;-76
2023/12/09 06:34:38;;;;;;;1.13;0.60;;;9.40;56.50;;;;;;5055936;28;20060;-76
2023/12/09 06:37:05;;;;;;;2.03;0.60;;;9.40;99.90;;;;;;5053350;28;20137;-76
2023/12/09 06:39:32;;;;;;;5.00;0.98;;;9.40;99.90;;;;;;5022134;28;20037;-76
2023/12/09 06:41:59;;;;;;;1.67;0.52;;;9.50;99.90;;;;;;5039621;28;20130;-77
2023/12/09 06:44:26;;;;;;;1.98;0.70;;;9.40;99.90;;;;;;5043441;28;20094;-77
2023/12/09 06:46:54;;;;;;;0.52;0.30;;;9.40;99.90;;;;;;5036886;28;20059;-76
2023/12/09 06:49:21;;;;;;;1.95;0.50;;;9.40;99.90;;;;;;5043125;28;20045;-77
2023/12/09 06:51:49;;;;;;;1.17;0.50;;;9.40;99.90;;;;;;5049390;28;20160;-76
2023/12/09 06:54:17;;;;;;;0.82;0.45;;;9.40;99.90;;;;;;5006955;28;20114;-76
2023/12/09 06:56:44;;;;;;;1.48;0.52;;;9.40;99.90;;;;;;5039505;28;20160;-76
2023/12/09 06:59:10;;;;;;;1.00;0.60;;;9.50;99.90;;;;;;5018046;28;20122;-76
2023/12/09 07:01:37;;;;;;;1.30;0.55;;;9.50;99.90;;;;;;5014071;28;20050;-76
2023/12/09 07:04:04;;;;;;;0.88;0.50;;;9.50;99.90;;;;;;5018916;28;20128;-76
2023/12/09 07:06:31;;;;;;;1.25;0.50;;;9.50;99.90;;;;;;5021079;28;20506;-76
2023/12/09 07:08:58;;;;;;;0.98;0.82;;;9.50;99.90;;;;;;5023685;28;20111;-77
2023/12/09 07:11:26;;;;;;;0.68;0.40;;;9.50;99.90;;;;;;5024548;28;20065;-76
2023/12/09 07:13:53;;;;;;;1.00;0.40;;;9.50;99.90;;;;;;5023513;28;20065;-77
2023/12/09 07:16:20;;;;;;;0.93;0.50;;;9.50;99.90;;;;;;5023098;28;20479;-77
2023/12/09 07:18:47;;;;;;;0.85;0.45;;;9.50;99.90;;;;;;5023803;28;20522;-76
2023/12/09 07:21:15;;;;;;;1.00;0.50;;;9.50;99.90;;;;;;5025060;28;20053;-76
2023/12/09 07:23:42;;;;;;;1.42;0.50;;;9.50;99.90;;;;;;5024302;28;20494;-76
2023/12/09 07:26:10;;;;;;;1.23;0.73;;;9.50;99.90;;;;;;5005936;28;20068;-76
2023/12/09 07:28:39;;;;;;;1.50;0.50;;;9.50;99.90;;;;;;5002901;28;20467;-75
2023/12/09 07:31:06;;;;;;;0.60;0.40;;;9.50;1.00;;;;;;5020205;28;20064;-76
2023/12/09 07:33:33;;;;;;;1.08;0.47;;;9.50;1.00;;;;;;5022820;28;20048;-76
2023/12/09 07:36:00;;;;;;;0.57;0.45;;;9.50;1.00;;;;;;5023045;28;20068;-76
2023/12/09 07:38:30;;;;;;;0.50;0.22;;;9.50;1.00;;;;;;5023005;28;20119;-76
2023/12/09 07:40:58;;;;;;;0.98;0.30;;;9.50;1.00;;;;;;5006988;28;20046;-76
2023/12/09 07:43:24;;;;;;;0.60;0.30;;;9.50;1.00;;;;;;5006407;28;20049;-76
2023/12/09 07:45:51;;;;;;;0.85;0.38;;;9.50;1.00;;;;;;5006711;28;20128;-76
2023/12/09 07:48:18;;;;;;;0.43;0.25;;;9.50;1.00;;;;;;5026273;28;20050;-76
2023/12/09 07:50:45;;;;;;;0.73;0.70;;;9.50;15.70;;;;;;5023511;28;20449;-77
2023/12/09 07:53:12;;;;;;;0.85;0.40;;;9.50;30.60;;;;;;5022437;28;20057;-77
2023/12/09 07:55:39;;;;;;;0.75;0.40;;;9.50;66.10;;;;;;5030172;28;20187;-77
2023/12/09 07:58:06;;;;;;;1.17;0.50;;;9.50;41.40;;;;;;5004776;28;20041;-77
2023/12/09 08:00:33;;;;;;;0.70;0.30;;;9.50;63.60;;;;;;5004299;28;20053;-77
2023/12/09 08:03:07;;;;;;;0.22;0.20;;;9.60;31.30;;;;;;5021548;28;20045;-77
2023/12/09 08:05:34;;;;;;;0.47;0.30;;;9.60;54.70;;;;;;5018102;28;20049;-77
2023/12/09 08:08:02;;;;;;;0.25;0.20;;;9.60;74.60;;;;;;5021030;28;20114;-77
2023/12/09 08:10:29;;;;;;;0.65;0.32;;;9.60;55.80;;;;;;5007606;28;20064;-76
2023/12/09 08:12:56;;;;;;;0.13;0.13;;;9.60;93.90;;;;;;5027989;28;20188;-77
2023/12/09 08:15:23;;;;;;;0.68;0.20;;;9.60;99.90;;;;;;5024239;28;20046;-76
2023/12/09 08:17:50;;;;;;;0.22;0.20;;;9.60;99.90;;;;;;5029257;28;20148;-77
2023/12/09 08:20:17;;;;;;;1.60;0.22;;;9.60;99.90;;;;;;5006828;28;20064;-77
2023/12/09 08:22:46;;;;;;;0.35;0.22;;;9.60;99.90;;;;;;5022720;28;20061;-77
2023/12/09 08:25:13;;;;;;;0.20;0.20;;;9.70;99.90;;;;;;5020598;28;20053;-78
2023/12/09 08:27:40;;;;;;;0.20;0.20;;;9.70;99.90;;;;;;5008078;28;20075;-78
2023/12/09 08:30:10;;;;;;;0.20;0.20;;;9.60;99.90;;;;;;5022800;28;20080;-77
2023/12/09 08:32:39;;;;;;;0.28;0.22;;;9.70;99.90;;;;;;5007892;28;20092;-75
2023/12/09 08:35:07;;;;;;;0.30;0.22;;;9.70;99.90;;;;;;5023583;28;20170;-75
2023/12/09 08:37:36;;;;;;;0.45;0.30;;;9.70;99.90;;;;;;5026688;28;20338;-75
2023/12/09 08:40:09;;;;;;;0.40;0.40;;;9.70;99.90;;;;;;5027169;28;20061;-75
2023/12/09 08:42:41;;;;;;;1.00;0.30;;;9.70;99.90;;;;;;5024905;28;20103;-76
2023/12/09 08:45:11;;;;;;;0.45;0.20;;;9.70;99.90;;;;;;5022145;28;20042;-76
2023/12/09 08:47:39;;;;;;;0.98;0.32;;;9.70;99.90;;;;;;5005231;28;20710;-76
2023/12/09 08:50:11;;;;;;;0.85;0.28;;;9.70;99.90;;;;;;5006584;28;20152;-76
2023/12/09 08:52:53;;;;;;;0.30;0.20;;;9.80;99.90;;;;;;5031267;28;20715;-75
2023/12/09 08:55:21;;;;;;;0.65;0.30;;;9.70;99.90;;;;;;5023998;28;20081;-75
2023/12/09 08:57:48;;;;;;;0.60;0.30;;;9.80;99.90;;;;;;5025188;28;20049;-76
2023/12/09 09:00:20;;;;;;;0.08;0.08;;;9.80;99.90;;;;;;5022945;28;20588;-76
2023/12/09 09:02:48;;;;;;;0.20;0.20;;;9.80;99.90;;;;;;5020585;28;20121;-76
2023/12/09 09:05:15;;;;;;;0.38;0.20;;;9.80;99.90;;;;;;5021978;28;20125;-75
2023/12/09 09:07:45;;;;;;;1.00;0.22;;;9.90;99.90;;;;;;5006699;28;20044;-75
2023/12/09 09:10:13;;;;;;;0.20;0.20;;;9.90;99.90;;;;;;5024310;28;20052;-75
2023/12/09 09:12:40;;;;;;;0.10;0.10;;;9.90;99.70;;;;;;5023149;28;20050;-76
2023/12/09 09:15:08;;;;;;;0.45;0.30;;;10.00;78.50;;;;;;5021852;28;20483;-75
2023/12/09 09:17:36;;;;;;;0.30;0.22;;;10.00;63.50;;;;;;5005847;28;20048;-76
2023/12/09 09:20:04;;;;;;;0.52;0.30;;;10.00;20.50;;;;;;5002766;28;20408;-76
2023/12/09 09:22:33;;;;;;;0.75;0.30;;;10.00;1.00;;;;;;4992998;28;20049;-75
2023/12/09 09:24:59;;;;;;;0.13;0.13;;;10.00;1.00;;;;;;5023275;28;20714;-76
2023/12/09 09:27:26;;;;;;;0.32;0.30;;;10.10;10.30;;;;;;5023098;28;20041;-76
2023/12/09 09:29:54;;;;;;;0.20;0.20;;;10.10;17.20;;;;;;5027879;28;20053;-76
2023/12/09 09:32:21;;;;;;;0.20;0.20;;;10.10;38.50;;;;;;5024116;28;20829;-75
2023/12/09 09:34:48;;;;;;;0.70;0.20;;;10.10;1.30;;;;;;5025608;28;20045;-75
2023/12/09 09:37:16;;;;;;;0.10;0.10;;;10.00;3.30;;;;;;5005168;28;20542;-76
2023/12/09 09:39:42;;;;;;;0.20;0.20;;;10.10;52.90;;;;;;5023984;28;20045;-76
2023/12/09 09:42:19;;;;;;;1.00;0.30;;;10.10;62.10;;;;;;5025120;28;20049;-77
2023/12/09 09:45:14;;;;;;;0.25;0.20;;;10.10;64.20;;;;;;5020330;28;20057;-76
2023/12/09 09:47:42;;;;;;;0.13;0.13;;;10.10;99.40;;;;;;5022876;28;20053;-77
2023/12/09 09:50:10;;;;;;;0.10;0.10;;;10.20;99.90;;;;;;5021005;28;20057;-76
2023/12/09 09:52:40;;;;;;;0.30;0.20;;;10.20;99.90;;;;;;5023348;28;20069;-76
2023/12/09 09:55:08;;;;;;;0.38;0.10;;;10.20;99.90;;;;;;5021365;28;20053;-76
2023/12/09 09:57:35;;;;;;;0.10;0.10;;;10.20;21.90;;;;;;5020572;28;20042;-76
2023/12/09 10:00:08;;;;;;;0.10;0.10;;;10.20;85.40;;;;;;5017061;28;20506;-76
2023/12/09 10:02:36;;;;;;;0.10;0.10;;;10.20;73.20;;;;;;5018145;28;20056;-76
2023/12/09 10:05:06;;;;;;;0.22;0.10;;;10.30;74.20;;;;;;5019596;28;20045;-75
2023/12/09 10:07:33;;;;;;;0.10;0.10;;;10.30;92.90;;;;;;5021987;28;20052;-76
2023/12/09 10:10:02;;;;;;;0.17;0.10;;;10.40;99.90;;;;;;5024666;28;20487;-74
2023/12/09 10:12:29;;;;;;;0.10;0.10;;;10.40;1.00;;;;;;5025059;28;20065;-74
2023/12/09 10:14:56;;;;;;;0.05;0.05;;;10.40;18.30;;;;;;5017479;28;20049;-74
2023/12/09 10:17:23;;;;;;;0.10;0.10;;;10.50;17.60;;;;;;5032305;28;20509;-74
2023/12/09 10:19:50;;;;;;;0.20;0.20;;;10.50;1.00;;;;;;5023034;28;20556;-75
2023/12/09 10:22:17;;;;;;;0.55;0.43;;;10.60;1.00;;;;;;4999139;28;20224;-74
2023/12/09 10:24:51;;;;;;;0.10;0.10;;;10.60;1.00;;;;;;5016392;28;20052;-75
2023/12/09 10:27:22;;;;;;;0.20;0.20;;;10.70;1.00;;;;;;4999297;28;20178;-75
2023/12/09 10:29:50;;;;;;;0.35;0.20;;;10.70;1.00;;;;;;4997822;28;20126;-76
2023/12/09 10:32:17;;;;;;;0.47;0.30;;;10.80;99.90;;;;;;5002034;28;20425;-75
2023/12/09 10:34:44;;;;;;;0.20;0.20;;;10.80;99.90;;;;;;5018856;28;20045;-75
2023/12/09 10:37:12;;;;;;;0.13;0.10;;;10.90;99.90;;;;;;5021098;28;20140;-75
2023/12/09 10:39:46;;;;;;;0.13;0.13;;;10.90;99.90;;;;;;5006052;28;20049;-75
2023/12/09 10:42:13;;;;;;;0.20;0.20;;;11.00;99.90;;;;;;5019856;28;20084;-75
2023/12/09 10:44:41;;;;;;;0.73;0.65;;;11.10;1.00;;;;;;5028721;28;20053;-75
2023/12/09 10:47:08;;;;;;;0.57;0.30;;;11.20;99.90;;;;;;5035634;28;20053;-75
2023/12/09 10:49:35;;;;;;;0.30;0.30;;;11.20;99.90;;;;;;5013740;28;20400;-75
2023/12/09 10:52:02;;;;;;;0.32;0.32;;;11.30;99.90;;;;;;5034694;28;20057;-75
2023/12/09 10:54:29;;;;;;;0.20;0.20;;;11.50;1.00;;;;;;5019094;28;20053;-75
2023/12/09 10:56:58;;;;;;;0.20;0.20;;;11.70;99.90;;;;;;5020847;28;20065;-75
2023/12/09 10:59:25;;;;;;;0.10;0.10;;;11.80;99.90;;;;;;5021393;28;20845;-75
2023/12/09 11:01:52;;;;;;;0.20;0.20;;;11.90;1.00;;;;;;5002979;28;20045;-75
2023/12/09 11:04:19;;;;;;;0.30;0.20;;;11.90;1.00;;;;;;5023370;28;20352;-75
2023/12/09 11:06:48;;;;;;;0.10;0.10;;;12.00;99.90;;;;;;5012322;28;20757;-75
2023/12/09 11:09:15;;;;;;;0.20;0.20;;;12.10;1.00;;;;;;5022990;28;20147;-76
2023/12/09 11:11:42;;;;;;;0.20;0.20;;;12.20;99.90;;;;;;5023870;28;20056;-75
2023/12/09 11:14:12;;;;;;;0.47;0.20;;;12.30;99.90;;;;;;5022180;28;20113;-75
2023/12/09 11:16:43;;;;;;;0.10;0.10;;;12.30;99.90;;;;;;5020549;28;20406;-76
2023/12/09 11:19:16;;;;;;;0.20;0.20;;;12.40;99.90;;;;;;5034944;28;20131;-75
2023/12/09 11:21:47;;;;;;;0.45;0.30;;;12.40;99.90;;;;;;5031852;28;20352;-76
2023/12/09 11:24:15;;;;;;;0.20;0.20;;;12.40;99.90;;;;;;5019552;28;20061;-76
2023/12/09 11:26:46;;;;;;;0.43;0.30;;;12.40;99.90;;;;;;5002512;28;20125;-76
2023/12/09 11:29:17;;;;;;;0.40;0.10;;;12.50;99.90;;;;;;5022368;28;20053;-76
2023/12/09 11:31:48;;;;;;;0.40;0.30;;;12.50;99.90;;;;;;5026131;28;20064;-74
2023/12/09 11:34:18;;;;;;;0.20;0.20;;;12.50;1.00;;;;;;5024733;28;20075;-75
2023/12/09 11:36:47;;;;;;;0.20;0.20;;;12.50;14.70;;;;;;5034630;28;20359;-75
2023/12/09 11:39:19;;;;;;;0.30;0.20;;;12.50;99.90;;;;;;5036105;28;20132;-74
2023/12/09 11:41:48;;;;;;;0.20;0.20;;;12.50;99.90;;;;;;5022340;28;20453;-75
2023/12/09 11:44:14;;;;;;;0.20;0.20;;;12.50;99.90;;;;;;5017203;28;20077;-75
2023/12/09 11:46:42;;;;;;;0.68;0.30;;;12.60;99.90;;;;;;5019356;28;20394;-74
2023/12/09 11:49:09;;;;;;;0.17;0.17;;;12.60;99.90;;;;;;5021590;28;20518;-75
2023/12/09 11:51:37;;;;;;;0.75;0.28;;;12.70;99.90;;;;;;5021630;28;20054;-74
2023/12/09 11:54:05;;;;;;;0.35;0.30;;;12.70;99.90;;;;;;5001278;28;20041;-75
2023/12/09 11:56:32;;;;;;;0.20;0.20;;;12.80;99.90;;;;;;5017584;28;20060;-74
2023/12/09 11:58:59;;;;;;;0.22;0.20;;;12.80;99.90;;;;;;5021601;28;20041;-74
2023/12/09 12:01:29;;;;;;;0.50;0.25;;;12.90;99.90;;;;;;5018940;28;20049;-75
2023/12/09 12:03:56;;;;;;;0.73;0.32;;;12.90;99.90;;;;;;5018473;28;20107;-75
2023/12/09 12:06:23;;;;;;;0.55;0.40;;;13.00;75.60;;;;;;5029366;28;20053;-75
2023/12/09 12:08:51;;;;;;;0.35;0.25;;;13.00;1.00;;;;;;5003220;28;20143;-75
2023/12/09 12:11:20;;;;;;;0.57;0.40;;;13.10;99.90;;;;;;5008238;28;20061;-76
2023/12/09 12:13:47;;;;;;;1.20;0.40;;;13.10;1.00;;;;;;5019222;28;20041;-75
2023/12/09 12:16:14;;;;;;;0.50;0.35;;;13.20;99.90;;;;;;5028310;28;20723;-75
2023/12/09 12:18:41;;;;;;;0.30;0.28;;;13.20;1.00;;;;;;5025265;28;20053;-75
2023/12/09 12:21:08;;;;;;;0.40;0.40;;;13.30;99.90;;;;;;5022617;28;20053;-76
2023/12/09 12:23:36;;;;;;;0.70;0.40;;;13.30;32.90;;;;;;5021405;28;20317;-75
2023/12/09 12:26:03;;;;;;;0.30;0.30;;;13.50;99.90;;;;;;5024311;28;20128;-76
2023/12/09 12:28:30;;;;;;;0.30;0.30;;;13.60;99.90;;;;;;5020322;28;20946;-75
2023/12/09 12:31:01;;;;;;;0.57;0.20;;;13.70;90.90;;;;;;5022360;28;20081;-76
2023/12/09 12:33:31;;;;;;;0.43;0.32;;;13.80;99.90;;;;;;5021294;28;20058;-76
2023/12/09 12:35:58;;;;;;;0.57;0.40;;;13.80;99.90;;;;;;5006904;28;20057;-76
2023/12/09 12:38:26;;;;;;;0.28;0.28;;;14.00;64.40;;;;;;5023302;28;20041;-75
2023/12/09 12:40:54;;;;;;;0.75;0.45;;;14.10;1.00;;;;;;5023067;28;20121;-75
2023/12/09 12:43:21;;;;;;;0.80;0.45;;;14.10;99.90;;;;;;5001878;28;20053;-75
2023/12/09 12:45:49;;;;;;;0.20;0.20;;;14.20;99.90;;;;;;5017188;28;20081;-75
2023/12/09 12:48:17;;;;;;;0.40;0.32;;;14.20;99.90;;;;;;5030131;28;20441;-75
2023/12/09 12:50:47;;;;;;;0.43;0.40;;;14.20;39.40;;;;;;5023901;28;20057;-75
2023/12/09 12:53:15;;;;;;;0.60;0.40;;;14.40;47.00;;;;;;5022514;28;20179;-75
2023/12/09 12:55:43;;;;;;;0.30;0.30;;;14.80;1.00;;;;;;5031382;28;20072;-75
2023/12/09 12:58:10;;;;;;;0.65;0.43;;;15.10;1.00;;;;;;5024833;28;20056;-76
2023/12/09 13:00:37;;;;;;;0.40;0.30;;;15.30;99.90;;;;;;5017006;28;20049;-75